Time;durP1;ratioP1;P1;durP2;ratioP2;P2;SDS_P1;SDS_P2;PMS_P1;PMS_P2;Temp;Humidity;BMP_temperature;BMP_pressure;BME280_temperature;BME280_humidity;BME280_pressure;Samples;Min_cycle;Max_cycle;Signal;HPM_P1;HPM_P2
2022/06/23 00:00:43;;;;;;;42.58;21.15;;;;;;;-143.10;96.50;51128.16;4851697;29;20500;-66
2022/06/23 00:03:21;;;;;;;42.58;20.63;;;;;;;-143.10;97.41;51081.16;4852315;29;20085;-66
2022/06/23 00:06:42;;;;;;;46.45;21.42;;;;;;;-143.10;97.78;51100.75;4852381;29;20057;-66
2022/06/23 00:09:54;;;;;;;40.10;21.73;;;;;;;-143.10;98.81;51104.66;4851541;29;20109;-67
2022/06/23 00:12:44;;;;;;;42.45;21.65;;;;;;;-143.10;99.28;51075.28;4852370;29;20057;-66
2022/06/23 00:15:46;;;;;;;40.33;19.23;;;;;;;-143.10;97.50;51126.19;4852622;29;20149;-66
2022/06/23 00:18:37;;;;;;;40.67;17.92;;;;;;;-143.10;94.93;51112.50;4852594;29;20465;-67
2022/06/23 00:21:31;;;;;;;41.00;19.02;;;;;;;-143.10;95.55;51139.91;4852346;29;20062;-66
2022/06/23 00:24:24;;;;;;;35.22;17.30;;;;;;;-143.10;95.16;51077.25;4852214;29;20201;-67
2022/06/23 00:27:06;;;;;;;38.40;17.67;;;;;;;-143.10;93.26;51100.75;4852758;29;20062;-66
2022/06/23 00:29:59;;;;;;;38.97;18.40;;;;;;;-143.10;93.79;51096.81;4851480;29;20057;-66
2022/06/23 00:32:42;;;;;;;32.97;19.02;;;;;;;-143.10;94.27;51106.63;4850734;29;20057;-66
2022/06/23 00:35:30;;;;;;;36.00;21.42;;;;;;;-143.10;93.30;51098.78;4851711;29;20117;-66
2022/06/23 00:38:45;;;;;;;41.03;20.77;;;;;;;-143.10;93.74;51075.28;4852457;29;20060;-66
2022/06/23 00:41:44;;;;;;;39.42;21.38;;;;;;;-143.10;94.16;51132.06;4845094;29;20054;-66
2022/06/23 00:44:59;;;;;;;49.90;21.80;;;;;;;-143.10;91.51;51104.66;4840647;29;20141;-66
2022/06/23 00:48:03;;;;;;;40.17;22.50;;;;;;;-143.10;92.16;51083.13;4844966;29;20057;-66
2022/06/23 00:51:21;;;;;;;40.75;22.27;;;;;;;-143.10;91.88;51090.94;4843883;29;20062;-67
2022/06/23 00:54:27;;;;;;;52.17;21.42;;;;;;;-143.10;92.31;51092.91;4848977;29;20045;-67
2022/06/23 00:57:40;;;;;;;41.88;20.77;;;;;;;-143.10;91.09;51077.25;4841366;29;20065;-66
2022/06/23 01:00:45;;;;;;;42.72;19.70;;;;;;;-143.10;91.46;51089.00;4851981;29;20054;-67
2022/06/23 01:04:08;;;;;;;39.70;18.60;;;;;;;-143.10;89.38;51094.88;4851928;29;20053;-65
2022/06/23 01:07:33;;;;;;;34.47;17.05;;;;;;;-143.10;88.70;51102.69;4851370;29;20049;-65
2022/06/23 01:10:18;;;;;;;35.08;15.93;;;;;;;-143.10;88.46;51102.69;4865801;29;20066;-66
2022/06/23 01:13:47;;;;;;;28.83;14.63;;;;;;;-143.10;87.51;51108.56;4851872;29;20331;-66
2022/06/23 01:17:02;;;;;;;24.90;13.75;;;;;;;-143.10;86.62;51089.00;4863181;29;20061;-66
2022/06/23 01:19:59;;;;;;;31.95;13.38;;;;;;;-143.10;83.45;51106.63;4851250;29;20429;-66
2022/06/23 01:22:50;;;;;;;29.27;13.77;;;;;;;-143.10;84.48;51090.94;4851610;29;20049;-66
2022/06/23 01:26:07;;;;;;;23.35;11.60;;;;;;;-143.10;81.73;51104.66;4851299;29;20053;-66
2022/06/23 01:28:51;;;;;;;25.88;11.27;;;;;;;-143.10;81.34;51094.88;4851841;29;20113;-66
2022/06/23 01:32:16;;;;;;;31.70;12.45;;;;;;;-143.10;81.16;51096.81;4851164;29;20068;-66
2022/06/23 01:35:44;;;;;;;23.05;12.07;;;;;;;-143.10;80.34;51085.06;4851374;29;20267;-66
2022/06/23 01:39:11;;;;;;;26.10;13.70;;;;;;;-143.10;78.89;51102.69;4835506;29;20053;-66
2022/06/23 01:42:02;;;;;;;43.13;14.13;;;;;;;-143.10;77.50;51102.69;4851441;29;20105;-66
2022/06/23 01:45:03;;;;;;;26.65;11.23;;;;;;;-143.10;75.31;51059.63;4852961;29;20117;-67
2022/06/23 01:47:55;;;;;;;27.25;11.75;;;;;;;-143.10;73.27;51090.94;4847039;29;20133;-66
2022/06/23 01:50:59;;;;;;;29.75;11.57;;;;;;;-143.10;73.33;51077.25;4833440;29;20080;-67
2022/06/23 01:53:55;;;;;;;23.55;11.02;;;;;;;-143.10;70.39;51075.28;4824600;29;20108;-67
2022/06/23 01:57:02;;;;;;;22.10;10.60;;;;;;;-143.10;68.68;51055.72;4835377;29;20053;-67
2022/06/23 02:00:15;;;;;;;65.30;15.82;;;;;;;-143.10;69.18;51067.47;4819926;29;20798;-66
2022/06/23 02:03:27;;;;;;;24.05;11.85;;;;;;;-143.10;65.00;51057.66;4833761;29;20141;-67
2022/06/23 02:06:21;;;;;;;30.42;12.70;;;;;;;-143.10;62.46;51028.31;4834564;29;20046;-67
2022/06/23 02:09:27;;;;;;;23.10;11.70;;;;;;;-143.10;62.44;51057.66;4834314;29;20088;-66
2022/06/23 02:12:21;;;;;;;22.70;12.82;;;;;;;-143.10;61.92;51065.50;4834767;29;20046;-67
2022/06/23 02:15:20;;;;;;;21.17;10.98;;;;;;;-143.10;60.66;51053.75;4834126;29;20053;-67
2022/06/23 02:18:33;;;;;;;19.40;11.13;;;;;;;-143.10;59.98;51022.44;4834005;29;20058;-67
2022/06/23 02:21:45;;;;;;;21.83;11.48;;;;;;;-143.10;58.80;51049.84;4835578;29;20443;-67
2022/06/23 02:24:47;;;;;;;22.75;11.13;;;;;;;-143.10;59.11;51038.09;4829428;29;20508;-67
2022/06/23 02:27:37;;;;;;;18.55;11.35;;;;;;;-143.10;57.66;51045.91;4834256;29;20053;-67
2022/06/23 02:31:06;;;;;;;25.27;9.23;;;;;;;-143.10;59.02;51036.13;4834317;29;20054;-67
2022/06/23 02:33:59;;;;;;;23.38;11.70;;;;;;;-143.10;56.71;51012.63;4811805;29;20051;-67
2022/06/23 02:36:53;;;;;;;21.83;9.75;;;;;;;-143.10;56.31;51020.47;4835087;29;20396;-67
2022/06/23 02:39:44;;;;;;;23.58;11.13;;;;;;;-143.10;54.37;51022.44;4835683;29;20554;-67
2022/06/23 02:42:42;;;;;;;26.38;13.38;;;;;;;-143.10;56.09;51024.38;4835679;29;20415;-67
2022/06/23 02:45:52;;;;;;;29.13;14.10;;;;;;;-143.10;56.70;51047.88;4834989;29;20282;-67
2022/06/23 02:48:51;;;;;;;25.00;12.68;;;;;;;-143.10;55.44;51026.34;4826965;29;20083;-67
2022/06/23 02:52:20;;;;;;;25.55;11.30;;;;;;;-143.10;52.83;51026.34;4854368;29;20046;-67
2022/06/23 02:55:38;;;;;;;23.85;10.18;;;;;;;-143.10;54.00;51014.59;4852868;29;20081;-67
2022/06/23 02:59:07;;;;;;;22.20;9.50;;;;;;;-143.10;53.78;51032.22;4852639;29;20064;-67
2022/06/23 03:02:18;;;;;;;20.38;10.35;;;;;;;-143.10;55.38;51022.44;4836197;29;20057;-67
2022/06/23 03:05:04;;;;;;;21.58;8.27;;;;;;;-143.10;52.44;51016.56;4853323;29;20064;-66
2022/06/23 03:08:09;;;;;;;29.55;9.30;;;;;;;-143.10;50.30;50991.09;4852820;29;20328;-67
2022/06/23 03:11:02;;;;;;;25.60;8.57;;;;;;;-143.10;51.19;51028.31;4852541;29;20088;-66
2022/06/23 03:14:05;;;;;;;18.23;7.88;;;;;;;-143.10;50.69;51022.44;4852187;29;20053;-67
2022/06/23 03:16:53;;;;;;;16.38;8.65;;;;;;;-143.10;52.02;50995.03;4871510;29;20060;-68
2022/06/23 03:19:50;;;;;;;19.38;8.27;;;;;;;-143.10;50.96;50995.03;4856104;29;20049;-66
2022/06/23 03:22:35;;;;;;;21.88;7.65;;;;;;;-143.10;50.86;51034.19;4852902;29;20059;-67
2022/06/23 03:25:33;;;;;;;21.20;7.97;;;;;;;-143.10;50.32;51014.59;4858673;29;20258;-67
2022/06/23 03:28:18;;;;;;;33.25;8.38;;;;;;;-143.10;51.89;51002.84;4844495;29;20053;-67
2022/06/23 03:31:20;;;;;;;19.90;9.07;;;;;;;-143.10;52.76;50991.09;4853130;29;20551;-67
2022/06/23 03:34:30;;;;;;;23.02;9.70;;;;;;;-143.10;53.44;51008.72;4867369;29;20053;-67
2022/06/23 03:37:57;;;;;;;19.10;9.75;;;;;;;-143.10;51.05;51028.31;4851770;29;20160;-67
2022/06/23 03:44:26;;;;;;;25.58;10.45;;;;;;;-143.10;49.51;50989.16;4853253;29;20077;-67
2022/06/23 03:47:31;;;;;;;21.98;9.02;;;;;;;-143.10;48.44;50979.34;4850675;29;20045;-68
2022/06/23 03:50:35;;;;;;;24.25;8.93;;;;;;;-143.10;48.28;50995.03;4853737;29;20128;-68
2022/06/23 03:54:05;;;;;;;22.30;9.82;;;;;;;-143.10;52.44;51006.75;4852684;29;20049;-67
2022/06/23 03:57:02;;;;;;;21.15;7.97;;;;;;;-143.10;48.61;50993.06;4795373;29;20056;-67
2022/06/23 03:59:43;;;;;;;19.63;6.95;;;;;;;-143.10;48.27;50979.34;4852624;29;20068;-67
2022/06/23 04:02:40;;;;;;;23.05;8.70;;;;;;;-143.10;48.85;50959.78;4846273;29;20054;-67
2022/06/23 04:05:29;;;;;;;25.40;7.00;;;;;;;-143.10;47.53;50987.19;4847486;29;20057;-68
2022/06/23 04:08:20;;;;;;;22.70;6.68;;;;;;;-143.10;47.01;51010.69;4845924;29;20074;-67
2022/06/23 04:14:26;;;;;;;17.95;5.80;;;;;;;-143.10;45.15;50998.94;4833864;29;20649;-67
2022/06/23 04:17:41;;;;;;;24.75;6.18;;;;;;;-143.10;49.66;50989.16;4845974;29;20062;-67
2022/06/23 04:20:29;;;;;;;;;;;;;;;-143.10;48.03;50989.16;4834115;29;20436;-68
2022/06/23 04:23:11;;;;;;;16.85;6.60;;;;;;;-143.10;47.84;50957.81;4847717;29;19932;-67
2022/06/23 04:26:08;;;;;;;18.42;6.85;;;;;;;-143.10;47.84;50983.28;4848472;29;20069;-67
2022/06/23 04:28:55;;;;;;;24.25;8.30;;;;;;;-143.10;48.09;51014.59;4833709;29;20061;-67
2022/06/23 04:31:57;;;;;;;20.02;7.68;;;;;;;-143.10;49.18;50998.94;4832902;29;20347;-66
2022/06/23 04:35:07;;;;;;;31.88;10.70;;;;;;;-143.10;48.37;50991.09;4833104;29;20057;-66
2022/06/23 04:38:23;;;;;;;30.92;10.00;;;;;;;-143.10;51.26;50961.72;4833595;29;20058;-66
2022/06/23 04:41:20;;;;;;;25.85;9.50;;;;;;;-143.10;53.30;50963.69;4833029;29;20149;-67
2022/06/23 04:44:11;;;;;;;28.38;10.48;;;;;;;-143.10;51.23;50951.94;4834054;29;20054;-67
2022/06/23 04:47:10;;;;;;;21.45;9.65;;;;;;;-143.10;50.46;50979.34;4833706;29;20064;-67
2022/06/23 04:50:03;;;;;;;23.27;12.13;;;;;;;-143.10;47.36;50965.66;4834409;29;20084;-67
2022/06/23 04:52:54;;;;;;;27.95;11.30;;;;;;;-143.10;44.06;50955.88;4833407;29;20106;-66
2022/06/23 04:55:45;;;;;;;27.23;10.07;;;;;;;-143.10;45.03;50971.53;4845937;29;20073;-67
2022/06/23 04:58:28;;;;;;;18.13;9.52;;;;;;;-143.10;45.92;50975.44;4847623;29;20085;-67
2022/06/23 05:01:23;;;;;;;17.13;8.60;;;;;;;-143.10;46.29;50948.03;4833319;29;20077;-66
2022/06/23 05:04:13;;;;;;;37.10;14.68;;;;;;;-143.10;46.85;50955.88;4833951;29;20069;-66
2022/06/23 05:07:06;;;;;;;32.55;11.40;;;;;;;-143.10;46.40;50946.06;4833392;29;20054;-66
2022/06/23 05:09:51;;;;;;;34.25;12.50;;;;;;;-143.10;45.91;50946.06;4846748;29;20050;-67
2022/06/23 05:12:44;;;;;;;30.13;12.52;;;;;;;-143.10;49.18;50963.69;4833099;29;20122;-67
2022/06/23 05:15:58;;;;;;;28.80;10.50;;;;;;;-143.10;46.86;50944.13;4835029;29;20490;-66
2022/06/23 05:19:00;;;;;;;19.85;8.25;;;;;;;-143.10;47.76;50944.13;4830879;29;20121;-67
2022/06/23 05:21:48;;;;;;;23.38;7.60;;;;;;;-143.10;46.51;50950.00;4837043;29;20058;-67
2022/06/23 05:24:46;;;;;;;24.98;7.65;;;;;;;-143.10;49.06;50975.44;4836743;29;20397;-67
2022/06/23 05:27:35;;;;;;;21.55;7.30;;;;;;;-143.10;43.16;50961.72;4836726;29;20506;-68
2022/06/23 05:30:39;;;;;;;16.23;7.32;;;;;;;-143.10;45.47;50969.56;4836492;29;20077;-66
2022/06/23 05:33:32;;;;;;;18.98;8.00;;;;;;;-143.10;47.67;50924.53;4836224;29;20068;-67
2022/06/23 05:36:33;;;;;;;20.35;7.70;;;;;;;-143.10;46.57;50940.19;4836459;29;20057;-67
2022/06/23 05:39:38;;;;;;;19.80;8.68;;;;;;;-143.10;49.41;50940.19;4836524;29;20065;-67
2022/06/23 05:42:28;;;;;;;20.70;7.85;;;;;;;-143.10;47.76;50938.25;4836395;29;20084;-68
2022/06/23 05:45:24;;;;;;;30.27;8.38;;;;;;;-143.10;49.29;50948.03;4835618;29;20053;-67
2022/06/23 05:48:13;;;;;;;22.05;8.32;;;;;;;-143.10;45.91;50961.72;4836615;29;20053;-70
2022/06/23 05:51:17;;;;;;;20.95;7.43;;;;;;;-143.10;45.86;50928.44;4850315;29;20071;-66
2022/06/23 05:54:43;;;;;;;12.18;5.72;;;;;;;-143.10;47.00;50932.38;4853627;29;20064;-66
2022/06/23 05:57:47;;;;;;;18.80;5.45;;;;;;;-143.10;46.97;50959.78;4847265;29;20132;-67
2022/06/23 06:00:58;;;;;;;17.27;5.88;;;;;;;-143.10;44.63;50934.31;4852779;29;20053;-67
2022/06/23 06:04:04;;;;;;;12.43;3.88;;;;;;;-143.10;44.95;50971.53;4841639;29;20560;-69
2022/06/23 06:06:46;;;;;;;16.10;4.43;;;;;;;-143.10;46.04;50901.03;4852944;29;20041;-67
2022/06/23 06:09:40;;;;;;;12.40;3.70;;;;;;;-143.10;44.59;50918.66;4853199;29;20057;-67
2022/06/23 06:12:25;;;;;;;23.67;3.78;;;;;;;-143.10;46.76;50914.75;4846476;29;20485;-67
2022/06/23 06:15:24;;;;;;;13.48;3.17;;;;;;;-143.10;47.26;50912.78;4852978;29;20453;-67
2022/06/23 06:18:07;;;;;;;15.55;4.13;;;;;;;-143.10;49.97;50920.63;4853405;29;20377;-67
2022/06/23 06:20:59;;;;;;;11.93;3.60;;;;;;;-143.10;45.63;50948.03;4853434;29;20057;-68
2022/06/23 06:23:54;;;;;;;14.25;3.50;;;;;;;-143.10;49.14;50899.09;4853512;29;20144;-67
2022/06/23 06:26:59;;;;;;;10.35;3.38;;;;;;;-143.10;47.73;50932.38;4853010;29;20411;-67
2022/06/23 06:29:49;;;;;;;11.43;3.58;;;;;;;-143.10;45.04;50926.50;4852701;29;20129;-67
2022/06/23 06:32:37;;;;;;;13.13;3.90;;;;;;;-143.10;44.96;50928.44;4852984;29;20053;-67
2022/06/23 06:35:41;;;;;;;15.90;4.13;;;;;;;-143.10;45.11;50928.44;4852726;29;20433;-67
2022/06/23 06:38:34;;;;;;;16.08;3.85;;;;;;;-143.10;46.61;50922.59;4852746;29;20049;-67
2022/06/23 06:41:16;;;;;;;13.45;3.38;;;;;;;-143.10;42.93;50928.44;4852590;29;20057;-67
2022/06/23 06:44:07;;;;;;;15.23;4.25;;;;;;;-143.10;46.13;50904.97;4853357;29;20106;-67
2022/06/23 06:46:49;;;;;;;20.60;4.25;;;;;;;-143.10;46.36;50924.53;4852738;29;20516;-68
2022/06/23 06:49:45;;;;;;;8.65;3.20;;;;;;;-143.10;44.99;50922.59;4852545;29;20510;-68
2022/06/23 06:52:35;;;;;;;14.77;3.90;;;;;;;-143.10;44.88;50910.84;4849495;29;20061;-67
2022/06/23 06:56:05;;;;;;;10.18;3.42;;;;;;;-143.10;46.20;50936.28;4717068;27;9290054;-65
2022/06/23 06:59:14;;;;;;;16.10;3.30;;;;;;;-143.10;43.63;50912.78;5021429;28;20037;-67
2022/06/23 07:02:16;;;;;;;16.08;4.22;;;;;;;-143.10;49.25;50916.72;5021593;28;20076;-68
2022/06/23 07:05:20;;;;;;;25.30;3.20;;;;;;;-143.10;43.91;50891.25;5021019;28;20066;-66
2022/06/23 07:08:15;;;;;;;14.40;3.20;;;;;;;-143.10;44.11;50924.53;5021541;28;20069;-67
2022/06/23 07:11:29;;;;;;;16.88;3.92;;;;;;;-143.10;45.63;50881.47;5021531;28;20069;-68
2022/06/23 07:14:37;;;;;;;24.67;3.50;;;;;;;-143.10;46.27;50891.25;5020558;28;20107;-67
2022/06/23 07:17:43;;;;;;;19.30;4.03;;;;;;;-143.10;45.38;50889.31;5001283;28;20074;-66
2022/06/23 07:20:34;;;;;;;15.10;3.15;;;;;;;-143.10;47.15;50904.97;5001336;28;20049;-68
2022/06/23 07:23:48;;;;;;;14.10;3.33;;;;;;;-143.10;44.59;50924.53;5001192;28;20081;-66
2022/06/23 07:26:44;;;;;;;15.38;4.00;;;;;;;-143.10;48.05;50908.88;5001635;28;20474;-67
2022/06/23 07:29:45;;;;;;;19.33;6.72;;;;;;;-143.10;45.95;50883.44;4986045;28;20120;-67
2022/06/23 07:32:29;;;;;;;14.10;3.33;;;;;;;-143.10;44.72;50914.75;5001108;28;20058;-67
2022/06/23 07:35:33;;;;;;;12.38;3.42;;;;;;;-143.10;45.54;50891.25;5000934;28;20069;-67
2022/06/23 07:38:28;;;;;;;19.95;4.93;;;;;;;-143.10;45.56;50936.28;5001559;28;20152;-67
2022/06/23 07:41:33;;;;;;;13.82;4.10;;;;;;;-143.10;45.92;50901.03;5001037;28;20069;-66
2022/06/23 07:44:43;;;;;;;16.63;4.90;;;;;;;-143.10;45.62;50893.22;5000909;28;20291;-67
2022/06/23 07:47:25;;;;;;;17.25;5.70;;;;;;;-143.10;43.57;50897.13;5001568;28;20046;-66
2022/06/23 07:50:17;;;;;;;19.10;5.78;;;;;;;-143.10;44.56;50936.28;5020189;28;20540;-67
2022/06/23 07:53:19;;;;;;;25.13;7.38;;;;;;;-143.10;47.53;50903.00;5013719;28;20476;-67
2022/06/23 07:56:08;;;;;;;21.25;7.05;;;;;;;-143.10;46.13;50903.00;5041204;28;20766;-67
2022/06/23 07:59:05;;;;;;;17.17;6.70;;;;;;;-143.10;42.41;50881.47;5022268;28;20061;-68
2022/06/23 08:02:01;;;;;;;27.27;8.05;;;;;;;-143.10;46.85;50897.13;5026152;28;20777;-67
2022/06/23 08:04:59;;;;;;;23.98;7.38;;;;;;;-143.10;44.20;50867.75;5040050;28;20045;-67
2022/06/23 08:07:48;;;;;;;25.60;7.40;;;;;;;-143.10;42.07;50897.13;5009192;28;20061;-67
2022/06/23 08:10:33;;;;;;;21.88;7.85;;;;;;;-143.10;46.60;50869.72;5026920;28;20508;-67
2022/06/23 08:13:31;;;;;;;22.77;6.22;;;;;;;-143.10;47.40;50887.34;5026687;28;20060;-67
2022/06/23 08:19:29;;;;;;;13.70;5.05;;;;;;;-143.10;39.71;50903.00;5026583;28;20045;-67
2022/06/23 08:22:30;;;;;;;22.75;6.75;;;;;;;-143.10;39.59;50897.13;5026128;28;20061;-67
2022/06/23 08:25:08;;;;;;;15.10;6.28;;;;;;;-143.10;40.00;50867.75;5025151;28;20628;-67
2022/06/23 08:28:05;;;;;;;16.52;6.70;;;;;;;-143.10;42.88;50889.31;5027022;28;20073;-67
2022/06/23 08:30:54;;;;;;;16.60;6.88;;;;;;;-143.10;41.02;50908.88;5026408;28;20053;-67
2022/06/23 08:33:36;;;;;;;19.73;6.10;;;;;;;-143.10;38.34;50924.53;5026480;28;20060;-67
2022/06/23 08:36:30;;;;;;;24.98;6.05;;;;;;;-143.10;35.80;50904.97;5026041;28;20041;-65
2022/06/23 08:39:21;;;;;;;15.00;5.93;;;;;;;-143.10;38.66;50904.97;5026020;28;20057;-66
2022/06/23 08:42:27;;;;;;;14.75;4.78;;;;;;;-143.10;36.27;50895.16;5026306;28;20046;-67
2022/06/23 08:45:22;;;;;;;23.80;4.85;;;;;;;-143.10;36.12;50895.16;5026218;28;20124;-66
2022/06/23 08:48:32;;;;;;;15.18;5.13;;;;;;;-143.10;36.46;50865.81;5025736;28;20585;-66
2022/06/23 08:51:32;;;;;;;18.27;4.53;;;;;;;-143.10;38.16;50877.56;5007881;28;20393;-65
2022/06/23 08:54:24;;;;;;;18.80;4.55;;;;;;;-143.10;35.06;50877.56;5005667;28;20867;-66
2022/06/23 08:57:28;;;;;;;27.75;6.20;;;;;;;-143.10;33.83;50881.47;4993797;28;20108;-65
2022/06/23 09:00:39;;;;;;;13.13;3.20;;;;;;;-143.10;33.30;50865.81;4969903;28;20058;-65
2022/06/23 09:03:34;;;;;;;12.95;3.58;;;;;;;-143.10;34.71;50893.22;4986367;28;20060;-66
2022/06/23 09:06:41;;;;;;;19.85;4.43;;;;;;;-143.10;35.89;50891.25;4985965;28;20046;-65
2022/06/23 09:10:03;;;;;;;12.90;4.13;;;;;;;-143.10;34.59;50865.81;4986370;28;20557;-66
2022/06/23 09:13:11;;;;;;;23.30;4.70;;;;;;;-143.10;33.96;50861.88;4987053;28;20105;-66
2022/06/23 09:16:17;;;;;;;17.60;4.47;;;;;;;-143.10;36.59;50879.50;4986875;28;20679;-66
2022/06/23 09:19:30;;;;;;;14.80;4.88;;;;;;;-143.10;36.28;50852.09;4986302;28;20046;-67
2022/06/23 09:22:37;;;;;;;20.45;4.63;;;;;;;-143.10;37.81;50846.22;4967895;28;20051;-66
2022/06/23 09:25:43;;;;;;;11.77;5.10;;;;;;;-143.10;38.18;50877.56;4967922;28;20080;-66
2022/06/23 09:28:51;;;;;;;22.67;5.13;;;;;;;-143.10;38.38;50879.50;4985627;28;20061;-66
2022/06/23 09:31:43;;;;;;;19.42;5.60;;;;;;;-143.10;39.60;50844.28;4985821;28;20049;-67
2022/06/23 09:34:42;;;;;;;13.93;5.15;;;;;;;-143.10;39.17;50854.06;4974444;28;20126;-66
2022/06/23 09:37:42;;;;;;;13.38;4.55;;;;;;;-143.10;38.04;50889.31;4965933;28;20178;-66
2022/06/23 09:40:43;;;;;;;17.70;5.40;;;;;;;-143.10;38.07;50877.56;4966085;28;20054;-66
2022/06/23 09:44:06;;;;;;;23.85;5.43;;;;;;;-143.10;37.93;50842.31;4975369;28;20057;-66
2022/06/23 09:47:07;;;;;;;22.88;4.57;;;;;;;-143.10;37.99;50873.63;4985863;28;20125;-66
2022/06/23 09:50:10;;;;;;;19.23;4.63;;;;;;;-143.10;37.76;50857.97;4985427;28;20455;-66
2022/06/23 09:53:24;;;;;;;13.10;3.97;;;;;;;-143.10;41.49;50856.03;4998847;28;20050;-67
2022/06/23 09:56:29;;;;;;;17.23;4.38;;;;;;;-143.10;37.71;50904.97;5004342;28;20370;-66
2022/06/23 09:59:50;;;;;;;17.95;4.15;;;;;;;-143.10;36.81;50840.34;5002585;28;20057;-67
2022/06/23 10:02:51;;;;;;;24.63;4.45;;;;;;;-143.10;38.63;50861.88;5024731;28;20061;-67
2022/06/23 10:05:40;;;;;;;18.00;4.40;;;;;;;-143.10;37.05;50881.47;5016945;28;20049;-66
2022/06/23 10:08:56;;;;;;;12.77;3.67;;;;;;;-143.10;37.94;50848.19;5023943;28;20358;-67
2022/06/23 10:11:41;;;;;;;15.82;4.45;;;;;;;-143.10;37.35;50873.63;5024359;28;20045;-67
2022/06/23 10:14:44;;;;;;;19.48;4.30;;;;;;;-143.10;37.96;50881.47;5024357;28;20104;-67
2022/06/23 10:17:45;;;;;;;17.75;4.75;;;;;;;-143.10;37.53;50879.50;5024275;28;20041;-67
2022/06/23 10:20:27;;;;;;;17.63;4.60;;;;;;;-143.10;37.70;50885.38;5024505;28;20049;-66
2022/06/23 10:23:34;;;;;;;14.05;4.00;;;;;;;-143.10;37.17;50879.50;5023873;28;20049;-67
2022/06/23 10:26:31;;;;;;;15.07;4.00;;;;;;;-143.10;38.33;50873.63;5023724;28;20065;-67
2022/06/23 10:30:01;;;;;;;12.52;3.40;;;;;;;-143.10;36.80;50881.47;5023627;28;20461;-68
2022/06/23 10:33:42;;;;;;;14.25;4.35;;;;;;;-143.10;38.79;50842.31;5023941;28;20041;-66
2022/06/23 10:36:44;;;;;;;;;;;;;;;-143.10;38.19;50873.63;4979761;28;20041;-67
2022/06/23 10:40:07;;;;;;;13.50;3.55;;;;;;;-143.10;37.52;50848.19;5000899;28;20317;-66
2022/06/23 10:43:19;;;;;;;12.68;4.25;;;;;;;-143.10;37.15;50865.81;5023341;28;20473;-66
2022/06/23 10:46:32;;;;;;;13.65;3.97;;;;;;;-143.10;37.51;50859.94;5006458;28;20061;-67
2022/06/23 10:49:20;;;;;;;21.80;4.65;;;;;;;-143.10;36.73;50811.00;5015455;28;20718;-67
2022/06/23 10:52:33;;;;;;;17.85;3.95;;;;;;;-143.10;36.95;50865.81;5023307;28;20524;-68
2022/06/23 10:55:32;;;;;;;17.77;4.10;;;;;;;-143.10;35.91;50838.41;5024739;28;20126;-67
2022/06/23 10:58:40;;;;;;;20.15;3.25;;;;;;;-143.10;36.70;50848.19;5025115;28;20485;-66
2022/06/23 11:01:43;;;;;;;19.70;3.58;;;;;;;-143.10;36.81;50854.06;5023561;28;20060;-67
2022/06/23 11:04:59;;;;;;;17.77;3.55;;;;;;;-143.10;36.37;50826.66;5018064;28;20567;-67
2022/06/23 11:08:38;;;;;;;18.02;3.80;;;;;;;-143.10;36.25;50856.03;5004206;28;20054;-66
2022/06/23 11:11:52;;;;;;;21.33;3.85;;;;;;;-143.10;36.23;50824.69;4961634;28;20089;-68
2022/06/23 11:14:50;;;;;;;14.93;3.20;;;;;;;-143.10;36.24;50850.16;5023220;28;20069;-68
2022/06/23 11:18:07;;;;;;;23.38;4.75;;;;;;;-143.10;36.78;50857.97;5006200;28;20760;-66
2022/06/23 11:21:33;;;;;;;23.02;4.45;;;;;;;-143.10;37.51;50834.47;5030701;28;20174;-66
2022/06/23 11:24:35;;;;;;;26.88;4.47;;;;;;;-143.10;37.46;50856.03;5043246;28;20499;-67
2022/06/23 11:27:50;;;;;;;21.38;5.05;;;;;;;-143.10;36.48;50832.53;5043586;28;20088;-67
2022/06/23 11:30:50;;;;;;;19.23;4.13;;;;;;;-143.10;36.72;50838.41;5042978;28;20056;-66
2022/06/23 11:34:13;;;;;;;13.35;3.25;;;;;;;-143.10;36.71;50852.09;5043542;28;20064;-66
2022/06/23 11:36:56;;;;;;;23.48;4.97;;;;;;;-143.10;37.34;50863.84;5043156;28;20377;-68
2022/06/23 11:40:12;;;;;;;15.80;3.75;;;;;;;-143.10;37.07;50830.56;5023831;28;20119;-67
2022/06/23 11:43:17;;;;;;;17.95;3.40;;;;;;;-143.10;36.28;50826.66;5027474;28;20168;-66
2022/06/23 11:46:35;;;;;;;21.77;3.53;;;;;;;-143.10;35.64;50822.75;5034335;28;20115;-65
2022/06/23 11:49:51;;;;;;;19.45;3.97;;;;;;;-143.10;36.50;50865.81;5043068;28;20130;-66
2022/06/23 11:53:01;;;;;;;20.25;3.55;;;;;;;-143.10;36.54;50857.97;5043677;28;20106;-66
2022/06/23 11:55:55;;;;;;;12.75;3.40;;;;;;;-143.10;37.05;50836.44;5046764;28;20571;-66
2022/06/23 11:59:22;;;;;;;16.88;2.92;;;;;;;-143.10;36.07;50869.72;5048192;28;20115;-66
2022/06/23 12:02:59;;;;;;;23.67;4.20;;;;;;;-143.10;37.69;50840.34;4948375;28;20055;-68
2022/06/23 12:05:54;;;;;;;30.75;4.10;;;;;;;-143.10;37.59;50814.91;5046272;28;20048;-66
2022/06/23 12:08:43;;;;;;;23.30;3.85;;;;;;;-143.10;37.51;50850.16;5046375;28;20060;-65
2022/06/23 12:11:34;;;;;;;17.55;4.28;;;;;;;-143.10;37.40;50852.09;5046347;28;20045;-66
2022/06/23 12:14:18;;;;;;;21.15;3.20;;;;;;;-143.10;38.03;50850.16;5046431;28;20139;-67
2022/06/23 12:17:44;;;;;;;27.15;3.38;;;;;;;-143.10;37.40;50854.06;5046302;28;20641;-67
2022/06/23 12:20:47;;;;;;;20.73;3.50;;;;;;;-143.10;39.33;50848.19;5045927;28;20471;-67
2022/06/23 12:23:59;;;;;;;21.77;4.00;;;;;;;-143.10;39.62;50854.06;5028798;28;20052;-66
2022/06/23 12:27:07;;;;;;;23.63;5.30;;;;;;;-143.10;38.30;50861.88;5046408;28;20048;-67
2022/06/23 12:30:05;;;;;;;23.00;4.45;;;;;;;-143.10;38.76;50857.97;5046374;28;20045;-67
2022/06/23 12:33:22;;;;;;;23.73;4.95;;;;;;;-143.10;39.40;50828.59;5041305;28;20742;-67
2022/06/23 12:36:20;;;;;;;15.95;3.60;;;;;;;-143.10;38.58;50834.47;5045520;28;20048;-67
2022/06/23 12:39:10;;;;;;;26.65;4.22;;;;;;;-143.10;38.06;50822.75;5046379;28;20424;-67
2022/06/23 12:42:05;;;;;;;21.73;3.65;;;;;;;-143.10;37.86;50879.50;5031912;28;20045;-66
2022/06/23 12:45:08;;;;;;;23.80;3.40;;;;;;;-143.10;39.18;50822.75;5046201;28;20058;-67
2022/06/23 12:48:45;;;;;;;17.85;3.42;;;;;;;-143.10;37.67;50873.63;5040521;28;20045;-67
2022/06/23 12:51:45;;;;;;;25.00;4.20;;;;;;;-143.10;38.36;50830.56;5025414;28;20075;-67
2022/06/23 12:54:55;;;;;;;24.40;3.88;;;;;;;-143.10;39.34;50863.84;5026135;28;20104;-66
2022/06/23 12:57:58;;;;;;;23.70;3.53;;;;;;;-143.10;38.60;50852.09;5025993;28;20045;-67
2022/06/23 13:01:23;;;;;;;23.73;4.25;;;;;;;-143.10;39.01;50869.72;5046144;28;20116;-67
2022/06/23 13:04:22;;;;;;;23.30;4.70;;;;;;;-143.10;40.36;50871.69;5044556;28;20045;-67
2022/06/23 13:07:35;;;;;;;16.90;4.05;;;;;;;-143.10;42.21;50830.56;5044991;28;20086;-67
2022/06/23 13:10:37;;;;;;;31.48;4.60;;;;;;;-143.10;42.83;50832.53;5045585;28;20468;-67
2022/06/23 13:13:25;;;;;;;27.08;4.38;;;;;;;-143.10;43.66;50830.56;5045190;28;20072;-67
2022/06/23 13:16:27;;;;;;;35.05;5.75;;;;;;;-143.10;43.15;50832.53;5045362;28;20055;-66
2022/06/23 13:19:30;;;;;;;24.55;4.70;;;;;;;-143.10;41.83;50861.88;5027810;28;20127;-67
2022/06/23 13:22:56;;;;;;;25.85;3.88;;;;;;;-143.10;44.48;50850.16;5045093;28;20041;-67
2022/06/23 13:26:10;;;;;;;31.05;5.22;;;;;;;-143.10;45.58;50842.31;5045223;28;20180;-68
2022/06/23 13:29:12;;;;;;;27.42;5.78;;;;;;;-143.10;47.74;50846.22;5046317;28;20222;-66
2022/06/23 13:32:17;;;;;;;29.58;5.40;;;;;;;-143.10;45.38;50834.47;5045905;28;20053;-65
2022/06/23 13:35:17;;;;;;;29.17;5.43;;;;;;;-143.10;46.65;50854.06;5044847;28;20063;-66
2022/06/23 13:38:40;;;;;;;31.35;4.45;;;;;;;-143.10;46.94;50846.22;5044502;28;20045;-65
2022/06/23 13:41:40;;;;;;;18.70;4.78;;;;;;;-143.10;46.81;50854.06;5044500;28;20073;-67
2022/06/23 13:44:41;;;;;;;31.15;5.32;;;;;;;-143.10;47.17;50846.22;5028176;28;20498;-66
2022/06/23 13:47:46;;;;;;;25.00;5.15;;;;;;;-143.10;46.37;50856.03;5044594;28;20547;-66
2022/06/23 13:50:43;;;;;;;32.17;6.30;;;;;;;-143.10;46.83;50807.06;5044304;28;20103;-66
2022/06/23 13:53:35;;;;;;;19.85;4.40;;;;;;;-143.10;49.27;50842.31;5053993;28;20388;-66